createdAt,value
2018-03-23T00:01:01.472Z,4.10
2018-03-23T00:03:29.340Z,4.20
2018-03-23T00:05:57.310Z,4.20
2018-03-23T00:08:25.178Z,4.10
2018-03-23T00:10:53.044Z,4.10
2018-03-23T00:13:20.910Z,4.10
2018-03-23T00:15:48.777Z,4.20
2018-03-23T00:18:16.644Z,4.10
2018-03-23T00:20:44.443Z,4.10
2018-03-23T00:23:12.995Z,4.20
2018-03-23T00:25:40.862Z,4.20
2018-03-23T00:28:08.728Z,4.10
2018-03-23T00:30:36.595Z,4.10
2018-03-23T00:33:04.462Z,4.20
2018-03-23T00:35:32.329Z,4.20
2018-03-23T00:38:00.198Z,4.20
2018-03-23T00:40:28.064Z,4.10
2018-03-23T00:42:55.932Z,4.20
2018-03-23T00:45:23.798Z,4.30
2018-03-23T00:47:51.667Z,4.20
2018-03-23T00:50:19.533Z,4.20
2018-03-23T00:52:47.401Z,4.20
2018-03-23T00:55:15.267Z,4.20
2018-03-23T00:57:43.135Z,4.20
2018-03-23T01:00:11.002Z,4.20
2018-03-23T01:02:38.869Z,4.20
2018-03-23T01:05:06.738Z,4.10
2018-03-23T01:07:34.604Z,4.10
2018-03-23T01:10:02.478Z,4.20
2018-03-23T01:12:30.340Z,4.20
2018-03-23T01:14:58.206Z,4.20
2018-03-23T01:17:26.074Z,4.20
2018-03-23T01:19:53.947Z,4.20
2018-03-23T01:22:21.808Z,4.30
2018-03-23T01:24:49.678Z,4.20
2018-03-23T01:27:17.546Z,4.20
2018-03-23T01:29:45.420Z,4.30
2018-03-23T01:32:13.278Z,4.30
2018-03-23T01:34:41.149Z,4.30
2018-03-23T01:37:09.012Z,4.30
2018-03-23T01:39:36.882Z,4.30
2018-03-23T01:42:04.749Z,4.30
2018-03-23T01:44:32.622Z,4.30
2018-03-23T01:47:00.483Z,4.20
2018-03-23T01:49:28.350Z,4.10
2018-03-23T01:51:56.217Z,4.20
2018-03-23T01:54:24.085Z,4.10
2018-03-23T01:56:51.952Z,4.10
2018-03-23T01:59:19.822Z,4.20
2018-03-23T02:01:47.689Z,4.20
2018-03-23T02:04:15.555Z,4.30
2018-03-23T02:06:43.422Z,4.30
2018-03-23T02:09:11.291Z,4.30
2018-03-23T02:11:39.156Z,4.30
2018-03-23T02:14:06.962Z,4.30
2018-03-23T02:16:35.608Z,4.30
2018-03-23T02:19:03.482Z,4.30
2018-03-23T02:21:31.345Z,4.30
2018-03-23T02:23:59.210Z,4.30
2018-03-23T02:26:27.086Z,4.30
2018-03-23T02:28:54.944Z,4.20
2018-03-23T02:31:22.811Z,4.30
2018-03-23T02:33:50.682Z,4.30
2018-03-23T02:36:18.551Z,4.20
2018-03-23T02:38:46.417Z,4.20
2018-03-23T02:41:15.201Z,4.20
2018-03-23T02:43:43.069Z,4.20
2018-03-23T02:46:10.940Z,4.20
2018-03-23T02:48:38.805Z,4.10
2018-03-23T02:51:06.674Z,4.20
2018-03-23T02:53:34.386Z,4.20
2018-03-23T02:56:03.022Z,4.30
2018-03-23T02:58:30.888Z,4.30
2018-03-23T03:00:58.758Z,4.30
2018-03-23T03:03:26.622Z,4.40
2018-03-23T03:05:54.496Z,4.30
2018-03-23T03:08:22.357Z,4.20
2018-03-23T03:10:50.224Z,4.30
2018-03-23T03:13:18.092Z,4.20
2018-03-23T03:15:45.958Z,4.10
2018-03-23T03:18:13.827Z,4.10
2018-03-23T03:20:41.694Z,4.20
2018-03-23T03:23:09.559Z,4.30
2018-03-23T03:25:37.427Z,4.20
2018-03-23T03:28:05.295Z,4.20
2018-03-23T03:30:33.163Z,4.20
2018-03-23T03:33:00.934Z,4.20
2018-03-23T03:35:28.794Z,4.20
2018-03-23T03:37:56.661Z,4.20
2018-03-23T03:40:24.529Z,4.00
2018-03-23T03:42:52.396Z,4.10
2018-03-23T03:45:20.263Z,4.10
2018-03-23T03:47:48.130Z,4.10
2018-03-23T03:50:15.996Z,4.00
2018-03-23T03:52:43.797Z,4.10
2018-03-23T03:55:12.448Z,4.00
2018-03-23T03:57:40.322Z,4.00
2018-03-23T04:00:08.187Z,4.00
2018-03-23T04:02:36.051Z,4.00
2018-03-23T04:05:03.918Z,4.20
2018-03-23T04:07:31.786Z,4.20
2018-03-23T04:09:59.652Z,4.20
2018-03-23T04:12:27.520Z,4.20
2018-03-23T04:14:55.388Z,4.20
2018-03-23T04:17:23.255Z,4.10
2018-03-23T04:19:51.122Z,4.00
2018-03-23T04:22:18.988Z,4.10
2018-03-23T04:24:46.859Z,4.10
2018-03-23T04:27:15.544Z,4.10
2018-03-23T04:29:43.414Z,4.10
2018-03-23T04:32:11.279Z,4.10
2018-03-23T04:34:39.146Z,4.20
2018-03-23T04:37:07.013Z,4.20
2018-03-23T04:39:34.880Z,4.20
2018-03-23T04:42:02.747Z,4.20
2018-03-23T04:44:30.618Z,4.20
2018-03-23T04:46:58.481Z,4.10
2018-03-23T04:49:26.349Z,4.20
2018-03-23T04:51:54.219Z,4.10
2018-03-23T04:54:22.084Z,4.20
2018-03-23T04:56:49.951Z,4.30
2018-03-23T04:59:17.865Z,4.30
2018-03-23T05:01:46.506Z,4.40
2018-03-23T05:04:14.372Z,4.40
2018-03-23T05:06:42.229Z,4.40
2018-03-23T05:09:10.107Z,4.40
2018-03-23T05:11:37.975Z,4.50
2018-03-23T05:14:05.842Z,4.40
2018-03-23T05:16:33.813Z,4.50
2018-03-23T05:19:05.060Z,4.50
2018-03-23T05:21:33.235Z,4.50
2018-03-23T05:24:28.394Z,4.60
2018-03-23T05:26:56.205Z,4.50
2018-03-23T05:29:24.073Z,4.40
2018-03-23T05:31:51.947Z,4.40
2018-03-23T05:34:19.808Z,4.40
2018-03-23T05:36:47.675Z,4.30
2018-03-23T05:39:15.542Z,4.30
2018-03-23T05:41:43.343Z,4.30
2018-03-23T05:44:13.755Z,4.30
2018-03-23T05:46:43.787Z,4.20
2018-03-23T05:49:14.491Z,4.30
2018-03-23T05:51:42.807Z,4.30
2018-03-23T05:54:11.992Z,4.40
2018-03-23T05:56:39.834Z,4.40
2018-03-23T05:59:07.799Z,4.50
2018-03-23T06:01:35.666Z,4.50
2018-03-23T06:04:03.534Z,4.50
2018-03-23T06:06:31.405Z,4.70
2018-03-23T06:09:00.087Z,4.60
2018-03-23T06:11:27.954Z,4.60
2018-03-23T06:13:55.823Z,4.70
2018-03-23T06:16:23.690Z,4.70
2018-03-23T06:18:51.558Z,4.80
2018-03-23T06:21:19.424Z,4.80
2018-03-23T06:23:47.292Z,4.80
2018-03-23T06:26:15.158Z,4.90
2018-03-23T06:28:43.026Z,4.80
2018-03-23T06:31:10.996Z,4.60
2018-03-23T06:33:38.863Z,4.60
2018-03-23T06:36:06.731Z,4.70
2018-03-23T06:38:34.597Z,4.70
2018-03-23T06:41:02.465Z,4.80
2018-03-23T06:43:30.331Z,4.90
2018-03-23T06:45:58.200Z,4.80
2018-03-23T06:48:26.067Z,4.90
2018-03-23T06:50:53.862Z,4.90
2018-03-23T06:53:21.699Z,4.80
2018-03-23T06:55:49.567Z,4.70
2018-03-23T06:58:17.433Z,4.80
2018-03-23T07:00:45.300Z,4.90
2018-03-23T07:03:13.168Z,4.90
2018-03-23T07:05:41.039Z,4.80
2018-03-23T07:08:08.901Z,4.80
2018-03-23T07:10:36.770Z,4.70
2018-03-23T07:13:04.637Z,4.80
2018-03-23T07:15:32.554Z,4.80
2018-03-23T07:18:01.191Z,4.80
2018-03-23T07:20:29.059Z,4.90
2018-03-23T07:22:56.926Z,4.90
2018-03-23T07:25:24.798Z,5.00
2018-03-23T07:27:52.661Z,4.90
2018-03-23T07:30:20.528Z,5.00
2018-03-23T07:32:48.395Z,4.90
2018-03-23T07:35:16.262Z,4.90
2018-03-23T07:37:44.183Z,4.90
2018-03-23T07:40:12.815Z,5.10
2018-03-23T07:42:40.683Z,5.00
2018-03-23T07:45:08.550Z,5.10
2018-03-23T07:47:36.417Z,5.00
2018-03-23T07:50:04.286Z,5.10
2018-03-23T07:52:32.152Z,5.20
2018-03-23T07:55:00.020Z,5.20
2018-03-23T07:57:27.886Z,5.20
2018-03-23T07:59:55.754Z,5.30
2018-03-23T08:02:23.621Z,5.30
2018-03-23T08:04:51.489Z,5.40
2018-03-23T08:07:19.356Z,5.40
2018-03-23T08:09:47.223Z,5.40
2018-03-23T08:12:15.096Z,5.40
2018-03-23T08:14:42.959Z,5.50
2018-03-23T08:17:10.826Z,5.40
2018-03-23T08:19:38.692Z,5.50
2018-03-23T08:22:06.560Z,5.60
2018-03-23T08:24:34.428Z,5.60
2018-03-23T08:27:02.295Z,5.50
2018-03-23T08:29:30.161Z,5.60
2018-03-23T08:31:58.029Z,5.60
2018-03-23T08:34:25.896Z,5.60
2018-03-23T08:36:53.764Z,5.70
2018-03-23T08:39:21.636Z,5.70
2018-03-23T08:41:49.528Z,5.70
2018-03-23T08:44:18.184Z,5.50
2018-03-23T08:46:46.053Z,5.50
2018-03-23T08:49:13.919Z,5.50
2018-03-23T08:51:41.788Z,5.50
2018-03-23T08:54:09.654Z,5.60
2018-03-23T08:56:37.524Z,5.60
2018-03-23T08:59:05.388Z,5.70
2018-03-23T09:01:33.257Z,5.60
2018-03-23T09:04:01.123Z,5.70
2018-03-23T09:06:28.991Z,5.70
2018-03-23T09:08:56.858Z,5.80
2018-03-23T09:11:24.724Z,5.70
2018-03-23T09:13:52.593Z,5.80
2018-03-23T09:16:20.461Z,5.90
2018-03-23T09:18:48.327Z,5.90
2018-03-23T09:21:16.194Z,6.00
2018-03-23T09:23:44.062Z,6.00
2018-03-23T09:26:11.928Z,6.10
2018-03-23T09:28:39.795Z,6.20
2018-03-23T09:31:07.692Z,6.20
2018-03-23T09:33:36.349Z,6.20
2018-03-23T09:36:04.224Z,6.20
2018-03-23T09:38:32.084Z,6.50
2018-03-23T09:40:59.950Z,6.60
2018-03-23T09:43:27.819Z,6.70
2018-03-23T09:45:55.717Z,6.80
2018-03-23T09:48:24.372Z,6.90
2018-03-23T09:50:52.239Z,6.90
2018-03-23T09:53:20.107Z,7.00
2018-03-23T09:55:47.977Z,7.10
2018-03-23T09:58:15.842Z,7.20
2018-03-23T10:00:43.639Z,7.30
2018-03-23T10:03:12.292Z,7.50
2018-03-23T10:05:40.262Z,7.50
2018-03-23T10:08:08.133Z,7.50
2018-03-23T10:10:35.997Z,7.50
2018-03-23T10:13:03.859Z,7.50
2018-03-23T10:15:31.733Z,7.40
2018-03-23T10:17:59.600Z,7.60
2018-03-23T10:20:27.469Z,7.70
2018-03-23T10:22:55.334Z,7.80
2018-03-23T10:25:23.203Z,8.10
2018-03-23T10:27:51.160Z,8.10
2018-03-23T10:30:19.039Z,8.30
2018-03-23T10:32:46.906Z,8.40
2018-03-23T10:35:14.785Z,8.60
2018-03-23T10:37:42.639Z,8.60
2018-03-23T10:40:10.513Z,8.60
2018-03-23T10:42:38.378Z,8.70
2018-03-23T10:45:06.242Z,8.80
2018-03-23T10:47:34.109Z,8.80
2018-03-23T10:50:01.982Z,8.80
2018-03-23T10:52:29.843Z,8.60
2018-03-23T10:54:57.711Z,8.60
2018-03-23T10:57:26.397Z,8.50
2018-03-23T10:59:54.265Z,8.50
2018-03-23T11:02:36.984Z,8.40
2018-03-23T11:05:04.843Z,8.50
2018-03-23T11:07:32.726Z,8.50
2018-03-23T11:10:00.581Z,8.50
2018-03-23T11:12:28.453Z,8.40
2018-03-23T11:14:56.316Z,8.50
2018-03-23T11:17:24.187Z,8.50
2018-03-23T11:19:52.055Z,8.60
2018-03-23T11:22:19.918Z,8.70
2018-03-23T11:24:47.785Z,8.60
2018-03-23T11:27:15.653Z,8.60
2018-03-23T11:29:43.514Z,8.60
2018-03-23T11:32:11.397Z,8.60
2018-03-23T11:34:39.255Z,8.60
2018-03-23T11:37:07.167Z,8.60
2018-03-23T11:39:35.808Z,8.30
2018-03-23T11:42:03.676Z,8.30
2018-03-23T11:44:31.543Z,8.20
2018-03-23T11:46:59.411Z,8.40
2018-03-23T11:49:27.277Z,8.40
2018-03-23T11:51:55.145Z,8.40
2018-03-23T11:54:23.012Z,8.40
2018-03-23T11:56:50.880Z,8.30
2018-03-23T11:59:18.746Z,8.30
2018-03-23T12:01:46.617Z,8.30
2018-03-23T12:04:14.481Z,8.30
2018-03-23T12:06:42.348Z,8.30
2018-03-23T12:09:10.217Z,8.50
2018-03-23T12:11:38.083Z,8.50
2018-03-23T12:14:05.951Z,8.30
2018-03-23T12:16:33.812Z,8.30
2018-03-23T12:19:01.685Z,8.10
2018-03-23T12:21:29.561Z,8.20
2018-03-23T12:23:57.349Z,8.20
2018-03-23T12:26:26.006Z,8.10
2018-03-23T12:28:53.871Z,8.10
2018-03-23T12:31:21.743Z,8.10
2018-03-23T12:33:49.605Z,8.10
2018-03-23T12:36:17.472Z,8.20
2018-03-23T12:38:45.340Z,8.30
2018-03-23T12:41:13.212Z,8.30
2018-03-23T12:43:41.104Z,8.50
2018-03-23T12:46:09.965Z,8.50
2018-03-23T12:48:37.833Z,8.50
2018-03-23T12:51:05.701Z,8.50
2018-03-23T12:53:33.568Z,8.50
2018-03-23T12:56:01.435Z,8.60
2018-03-23T12:58:29.302Z,8.40
2018-03-23T13:00:57.169Z,8.40
2018-03-23T13:03:25.037Z,8.40
2018-03-23T13:05:52.904Z,8.50
2018-03-23T13:08:20.771Z,8.40
2018-03-23T13:10:48.639Z,8.40
2018-03-23T13:13:16.506Z,8.40
2018-03-23T13:15:44.375Z,8.30
2018-03-23T13:18:12.241Z,8.30
2018-03-23T13:20:40.108Z,8.30
2018-03-23T13:23:07.976Z,8.20
2018-03-23T13:25:35.844Z,8.30
2018-03-23T13:28:03.813Z,8.20
2018-03-23T13:30:31.680Z,8.20
2018-03-23T13:32:59.547Z,8.20
2018-03-23T13:35:27.414Z,8.20
2018-03-23T13:37:55.280Z,8.20
2018-03-23T13:40:23.153Z,8.30
2018-03-23T13:42:51.016Z,8.20
2018-03-23T13:45:18.882Z,8.30
2018-03-23T13:47:46.751Z,8.20
2018-03-23T13:50:14.649Z,8.40
2018-03-23T13:52:43.304Z,8.20
2018-03-23T13:55:11.177Z,8.20
2018-03-23T13:57:39.040Z,8.20
2018-03-23T14:00:06.907Z,8.30
2018-03-23T14:02:34.774Z,8.30
2018-03-23T14:05:02.646Z,8.30
2018-03-23T14:07:30.509Z,8.30
2018-03-23T14:09:58.376Z,8.30
2018-03-23T14:12:26.243Z,8.30
2018-03-23T14:14:54.930Z,8.30
2018-03-23T14:17:22.797Z,8.30
2018-03-23T14:19:50.663Z,8.40
2018-03-23T14:22:18.554Z,8.40
2018-03-23T14:24:47.115Z,8.30
2018-03-23T14:29:48.892Z,8.40
2018-03-23T14:32:16.760Z,8.50
2018-03-23T14:34:45.446Z,8.30
2018-03-23T14:37:13.316Z,8.30
2018-03-23T14:39:41.180Z,8.30
2018-03-23T14:42:09.046Z,8.30
2018-03-23T14:44:36.916Z,8.10
2018-03-23T14:47:04.777Z,7.90
2018-03-23T14:49:32.660Z,7.80
2018-03-23T14:52:00.517Z,7.90
2018-03-23T14:54:28.384Z,7.80
2018-03-23T14:56:56.261Z,7.80
2018-03-23T14:59:24.121Z,7.80
2018-03-23T15:01:51.987Z,7.80
2018-03-23T15:04:19.853Z,7.80
2018-03-23T15:06:47.720Z,7.80
2018-03-23T15:09:15.589Z,7.80
2018-03-23T15:11:43.387Z,7.80
2018-03-23T15:14:16.954Z,7.70
2018-03-23T15:16:44.822Z,7.70
2018-03-23T15:19:12.689Z,7.70
2018-03-23T15:21:40.562Z,7.70
2018-03-23T15:24:08.628Z,7.70
2018-03-23T15:26:36.499Z,7.60
2018-03-23T15:29:04.364Z,7.60
2018-03-23T15:31:32.232Z,7.60
2018-03-23T15:34:00.100Z,7.60
2018-03-23T15:36:27.968Z,7.60
2018-03-23T15:38:55.832Z,7.60
2018-03-23T15:41:23.703Z,7.50
2018-03-23T15:43:51.573Z,7.60
2018-03-23T15:46:19.439Z,7.60
2018-03-23T15:48:47.303Z,7.60
2018-03-23T15:51:15.169Z,7.70
2018-03-23T15:53:43.037Z,7.60
2018-03-23T15:56:10.904Z,7.60
2018-03-23T15:58:38.771Z,7.60
2018-03-23T16:01:06.638Z,7.70
2018-03-23T16:03:34.506Z,7.70
2018-03-23T16:06:02.421Z,7.70
2018-03-23T16:08:31.060Z,7.70
2018-03-23T16:10:58.927Z,7.60
2018-03-23T16:13:26.794Z,7.60
2018-03-23T16:15:54.662Z,7.60
2018-03-23T16:18:22.529Z,7.60
2018-03-23T16:20:50.396Z,7.60
2018-03-23T16:23:18.266Z,7.70
2018-03-23T16:25:46.133Z,7.60
2018-03-23T16:28:13.998Z,7.50
2018-03-23T16:30:41.865Z,7.60
2018-03-23T16:33:09.734Z,7.60
2018-03-23T16:35:37.606Z,7.60
2018-03-23T16:38:05.468Z,7.60
2018-03-23T16:40:33.335Z,7.70
2018-03-23T16:43:01.204Z,7.60
2018-03-23T16:45:29.070Z,7.70
2018-03-23T16:47:56.936Z,7.70
2018-03-23T16:50:24.804Z,7.70
2018-03-23T16:52:52.672Z,7.60
2018-03-23T16:55:20.541Z,7.70
2018-03-23T16:57:48.406Z,7.70
2018-03-23T17:00:16.274Z,7.70
2018-03-23T17:02:45.418Z,7.70
2018-03-23T17:05:14.159Z,7.60
2018-03-23T17:07:47.291Z,7.60
2018-03-23T17:10:15.124Z,7.60
2018-03-23T17:12:42.983Z,7.80
2018-03-23T17:15:13.686Z,7.80
2018-03-23T17:17:41.485Z,7.80
2018-03-23T17:20:09.376Z,7.90
2018-03-23T17:22:38.050Z,7.70
2018-03-23T17:25:05.911Z,7.60
2018-03-23T17:27:33.976Z,7.60
2018-03-23T17:30:03.630Z,7.70
2018-03-23T17:32:31.555Z,7.60
2018-03-23T17:34:59.421Z,7.70
2018-03-23T17:37:27.297Z,7.70
2018-03-23T17:39:55.155Z,7.70
2018-03-23T17:42:23.024Z,7.70
2018-03-23T17:44:50.890Z,7.70
2018-03-23T17:47:18.710Z,7.60
2018-03-23T17:49:47.273Z,7.60
2018-03-23T17:52:16.028Z,7.60
2018-03-23T17:54:43.897Z,7.50
2018-03-23T17:57:11.763Z,7.50
2018-03-23T17:59:39.631Z,7.50
2018-03-23T18:02:07.498Z,7.60
2018-03-23T18:04:35.365Z,7.50
2018-03-23T18:07:03.295Z,7.60
2018-03-23T18:09:32.784Z,7.60
2018-03-23T18:12:02.180Z,7.60
2018-03-23T18:14:30.112Z,7.60
2018-03-23T18:16:57.978Z,7.70
2018-03-23T18:19:25.846Z,7.70
2018-03-23T18:21:53.716Z,7.70
2018-03-23T18:24:21.582Z,7.70
2018-03-23T18:26:49.451Z,7.60
2018-03-23T18:29:17.315Z,7.60
2018-03-23T18:31:45.182Z,7.60
2018-03-23T18:34:13.049Z,7.60
2018-03-23T18:36:40.918Z,7.60
2018-03-23T18:39:08.787Z,7.60
2018-03-23T18:41:36.651Z,7.70
2018-03-23T18:44:04.518Z,7.70
2018-03-23T18:46:32.387Z,7.70
2018-03-23T18:49:00.254Z,7.70
2018-03-23T18:51:28.121Z,7.70
2018-03-23T18:53:55.988Z,7.70
2018-03-23T18:56:23.855Z,7.60
2018-03-23T18:58:51.724Z,7.50
2018-03-23T19:01:19.591Z,7.40
2018-03-23T19:03:47.459Z,7.40
2018-03-23T19:06:15.326Z,7.40
2018-03-23T19:08:43.192Z,7.40
2018-03-23T19:11:11.060Z,7.30
2018-03-23T19:13:38.927Z,7.40
2018-03-23T19:16:06.794Z,7.50
2018-03-23T19:18:34.664Z,7.40
2018-03-23T19:21:02.577Z,7.40
2018-03-23T19:23:31.214Z,7.30
2018-03-23T19:25:59.094Z,7.30
2018-03-23T19:28:26.952Z,7.30
2018-03-23T19:30:54.817Z,7.20
2018-03-23T19:33:22.684Z,7.20
2018-03-23T19:35:50.552Z,7.20
2018-03-23T19:38:18.420Z,7.20
2018-03-23T19:40:46.287Z,7.30
2018-03-23T19:43:14.076Z,7.30
2018-03-23T19:45:41.919Z,7.50
2018-03-23T19:48:09.784Z,7.50
2018-03-23T19:50:37.654Z,7.50
2018-03-23T19:53:05.521Z,7.40
2018-03-23T19:55:33.389Z,7.40
2018-03-23T19:58:01.255Z,7.50
2018-03-23T20:00:29.126Z,7.50
2018-03-23T20:02:56.990Z,7.50
2018-03-23T20:05:24.858Z,7.50
2018-03-23T20:07:52.771Z,7.50
2018-03-23T20:10:21.411Z,7.40
2018-03-23T20:12:49.279Z,7.40
2018-03-23T20:15:17.145Z,7.40
2018-03-23T20:17:50.653Z,7.50
2018-03-23T20:20:24.150Z,7.50
2018-03-23T20:22:52.015Z,7.60
2018-03-23T20:25:19.879Z,7.60
2018-03-23T20:27:53.278Z,7.60
2018-03-23T20:30:21.145Z,7.60
2018-03-23T20:32:49.025Z,7.50
2018-03-23T20:35:16.807Z,7.50
2018-03-23T20:37:44.642Z,7.60
2018-03-23T20:40:12.512Z,7.60
2018-03-23T20:42:40.378Z,7.60
2018-03-23T20:45:08.245Z,7.60
2018-03-23T20:47:36.226Z,7.60
2018-03-23T20:50:04.096Z,7.60
2018-03-23T20:52:31.950Z,7.30
2018-03-23T20:54:59.818Z,7.20
2018-03-23T20:57:27.684Z,7.20
2018-03-23T20:59:55.552Z,7.30
2018-03-23T21:02:23.420Z,7.20
2018-03-23T21:04:51.289Z,7.20
2018-03-23T21:07:19.156Z,7.10
2018-03-23T21:09:47.025Z,7.10
2018-03-23T21:12:14.891Z,7.10
2018-03-23T21:14:42.758Z,7.00
2018-03-23T21:17:10.626Z,6.90
2018-03-23T21:19:38.493Z,6.40
2018-03-23T21:22:06.358Z,6.00
2018-03-23T21:24:34.226Z,6.00
2018-03-23T21:27:02.100Z,6.10
2018-03-23T21:29:29.959Z,6.20
2018-03-23T21:31:57.830Z,6.10
2018-03-23T21:34:25.700Z,6.00
2018-03-23T21:36:54.311Z,5.70
2018-03-23T21:39:22.967Z,5.40
2018-03-23T21:41:50.834Z,5.40
2018-03-23T21:44:18.705Z,5.20
2018-03-23T21:46:46.568Z,5.10
2018-03-23T21:49:14.435Z,5.00
2018-03-23T21:51:42.303Z,5.00
2018-03-23T21:54:10.172Z,4.90
2018-03-23T21:56:38.957Z,4.70
2018-03-23T21:59:06.826Z,4.70
2018-03-23T22:01:34.693Z,4.60
2018-03-23T22:04:02.562Z,4.60
2018-03-23T22:06:30.428Z,4.60
2018-03-23T22:08:58.295Z,4.60
2018-03-23T22:11:26.161Z,4.60
2018-03-23T22:13:54.031Z,4.60
2018-03-23T22:16:21.927Z,4.80
2018-03-23T22:18:50.585Z,4.80
2018-03-23T22:21:18.451Z,4.80
2018-03-23T22:23:46.408Z,4.70
2018-03-23T22:26:14.288Z,4.70
2018-03-23T22:28:42.157Z,4.80
2018-03-23T22:31:10.025Z,4.90
2018-03-23T22:33:37.890Z,4.90
2018-03-23T22:36:05.756Z,4.80
2018-03-23T22:38:33.628Z,4.70
2018-03-23T22:41:01.492Z,4.60
2018-03-23T22:43:29.359Z,4.60
2018-03-23T22:45:57.226Z,4.60
2018-03-23T22:48:25.095Z,4.60
2018-03-23T22:50:52.961Z,4.90
2018-03-23T22:53:20.826Z,5.10
2018-03-23T22:55:48.699Z,5.30
2018-03-23T22:58:16.562Z,5.40
2018-03-23T23:00:44.430Z,5.50
2018-03-23T23:03:12.297Z,5.60
2018-03-23T23:05:40.163Z,5.70
2018-03-23T23:08:07.959Z,5.50
2018-03-23T23:10:35.797Z,5.50
2018-03-23T23:13:03.664Z,5.60
2018-03-23T23:15:31.531Z,5.60
2018-03-23T23:17:59.399Z,5.70
2018-03-23T23:20:27.271Z,5.80
2018-03-23T23:22:55.133Z,5.80
2018-03-23T23:25:23.001Z,5.80
2018-03-23T23:27:50.868Z,5.80
2018-03-23T23:30:18.735Z,5.80
2018-03-23T23:32:46.602Z,5.60
2018-03-23T23:35:14.476Z,5.40
2018-03-23T23:37:42.336Z,5.50
2018-03-23T23:40:10.204Z,5.40
2018-03-23T23:42:38.071Z,5.20
2018-03-23T23:45:05.939Z,5.30
2018-03-23T23:47:33.807Z,5.30
2018-03-23T23:50:01.674Z,5.20
2018-03-23T23:52:31.384Z,5.30
2018-03-23T23:54:59.354Z,5.50
2018-03-23T23:57:27.221Z,5.60
2018-03-23T23:59:55.088Z,5.70
